createdAt,value
2023-05-04T00:00:27.753Z,13.25
2023-05-04T00:02:57.129Z,13.26
2023-05-04T00:05:26.873Z,13.29
2023-05-04T00:07:56.184Z,13.28
2023-05-04T00:10:25.198Z,13.17
2023-05-04T00:12:54.232Z,12.92
2023-05-04T00:15:24.884Z,13.04
2023-05-04T00:17:55.095Z,13.14
2023-05-04T00:20:24.300Z,13.11
2023-05-04T00:22:53.453Z,12.91
2023-05-04T00:25:23.220Z,13.01
2023-05-04T00:27:52.275Z,13.16
2023-05-04T00:30:21.664Z,13.21
2023-05-04T00:32:52.696Z,13.24
2023-05-04T00:35:21.677Z,13.18
2023-05-04T00:37:51.848Z,12.96
2023-05-04T00:40:21.562Z,12.91
2023-05-04T00:42:50.817Z,12.92
2023-05-04T00:45:21.024Z,12.66
2023-05-04T00:47:52.079Z,12.74
2023-05-04T00:50:21.825Z,12.84
2023-05-04T00:52:51.986Z,12.89
2023-05-04T00:55:22.085Z,12.73
2023-05-04T00:57:52.415Z,12.72
2023-05-04T01:00:21.945Z,12.81
2023-05-04T01:02:52.477Z,12.79
2023-05-04T01:05:21.755Z,12.77
2023-05-04T01:08:00.352Z,12.80
2023-05-04T01:10:36.507Z,12.72
2023-05-04T01:13:09.760Z,12.59
2023-05-04T01:15:39.790Z,12.65
2023-05-04T01:18:10.753Z,12.79
2023-05-04T01:20:39.988Z,12.59
2023-05-04T01:23:11.041Z,12.83
2023-05-04T01:25:46.774Z,12.91
2023-05-04T01:28:20.484Z,12.81
2023-05-04T01:30:53.252Z,12.70
2023-05-04T01:33:23.217Z,12.73
2023-05-04T01:35:52.650Z,12.64
2023-05-04T01:38:23.211Z,12.91
2023-05-04T01:40:52.442Z,12.85
2023-05-04T01:43:21.329Z,12.95
2023-05-04T01:45:50.624Z,12.83
2023-05-04T01:48:19.733Z,12.77
2023-05-04T01:50:49.321Z,12.75
2023-05-04T01:53:18.522Z,12.56
2023-05-04T01:55:49.270Z,12.56
2023-05-04T01:58:19.791Z,12.55
2023-05-04T02:00:49.287Z,12.64
2023-05-04T02:03:18.556Z,12.19
2023-05-04T02:05:47.963Z,12.51
2023-05-04T02:08:18.642Z,12.47
2023-05-04T02:10:49.167Z,12.38
2023-05-04T02:13:18.236Z,12.49
2023-05-04T02:15:47.348Z,12.43
2023-05-04T02:18:16.460Z,12.28
2023-05-04T02:20:45.529Z,12.35
2023-05-04T02:23:16.657Z,12.53
2023-05-04T02:25:45.793Z,12.47
2023-05-04T02:28:16.271Z,12.15
2023-05-04T02:30:45.190Z,12.34
2023-05-04T02:33:14.487Z,12.25
2023-05-04T02:35:44.259Z,12.20
2023-05-04T02:38:13.397Z,12.24
2023-05-04T02:40:42.582Z,12.32
2023-05-04T02:43:11.903Z,12.21
2023-05-04T02:45:42.520Z,12.16
2023-05-04T02:48:11.525Z,12.06
2023-05-04T02:50:41.003Z,12.28
2023-05-04T02:53:09.972Z,12.25
2023-05-04T02:55:39.225Z,12.23
2023-05-04T02:58:08.452Z,12.26
2023-05-04T03:00:37.456Z,12.34
2023-05-04T03:03:08.002Z,12.51
2023-05-04T03:05:37.192Z,12.57
2023-05-04T03:08:06.560Z,12.58
2023-05-04T03:10:35.628Z,12.46
2023-05-04T03:13:06.320Z,12.68
2023-05-04T03:15:35.455Z,12.59
2023-05-04T03:18:05.162Z,11.69
2023-05-04T03:20:35.771Z,12.70
2023-05-04T03:23:05.011Z,12.64
2023-05-04T03:25:33.942Z,12.71
2023-05-04T03:28:03.220Z,13.01
2023-05-04T03:30:32.189Z,13.03
2023-05-04T03:33:04.226Z,12.58
2023-05-04T03:35:33.866Z,12.63
2023-05-04T03:38:06.861Z,12.63
2023-05-04T03:40:36.054Z,12.61
2023-05-04T03:43:05.317Z,12.79
2023-05-04T03:45:34.434Z,13.24
2023-05-04T03:48:04.296Z,13.37
2023-05-04T03:50:33.624Z,13.38
2023-05-04T03:53:02.941Z,13.22
2023-05-04T03:55:33.422Z,13.42
2023-05-04T03:58:02.530Z,13.17
2023-05-04T04:00:31.800Z,13.49
2023-05-04T04:03:10.581Z,13.38
2023-05-04T04:05:40.343Z,13.21
2023-05-04T04:08:09.546Z,13.67
2023-05-04T04:10:39.879Z,13.66
2023-05-04T04:13:08.863Z,13.82
2023-05-04T04:15:38.266Z,13.93
2023-05-04T04:18:07.521Z,14.05
2023-05-04T04:20:36.498Z,13.68
2023-05-04T04:23:05.652Z,13.86
2023-05-04T04:25:36.222Z,13.71
2023-05-04T04:28:06.963Z,14.20
2023-05-04T04:30:35.953Z,13.87
2023-05-04T04:33:06.162Z,14.13
2023-05-04T04:35:35.269Z,14.06
2023-05-04T04:38:05.107Z,13.83
2023-05-04T04:40:34.297Z,14.28
2023-05-04T04:43:03.360Z,14.36
2023-05-04T04:45:34.093Z,14.31
2023-05-04T04:48:03.933Z,14.29
2023-05-04T04:50:33.634Z,14.23
2023-05-04T04:53:02.990Z,14.25
2023-05-04T04:55:32.735Z,13.95
2023-05-04T04:58:01.982Z,14.71
2023-05-04T05:00:31.613Z,14.82
2023-05-04T05:03:03.216Z,15.05
2023-05-04T05:05:32.640Z,15.21
2023-05-04T05:08:02.478Z,15.15
2023-05-04T05:10:32.139Z,15.16
2023-05-04T05:13:01.520Z,15.22
2023-05-04T05:15:30.539Z,15.51
2023-05-04T05:18:01.529Z,15.45
2023-05-04T05:20:31.114Z,15.46
2023-05-04T05:23:00.677Z,15.39
2023-05-04T05:25:29.683Z,15.21
2023-05-04T05:27:58.848Z,15.42
2023-05-04T05:30:28.659Z,15.07
2023-05-04T05:32:57.733Z,15.18
2023-05-04T05:35:28.436Z,15.13
2023-05-04T05:37:57.703Z,15.72
2023-05-04T05:40:27.021Z,16.12
2023-05-04T05:42:56.379Z,15.90
2023-05-04T05:45:25.471Z,16.53
2023-05-04T05:47:54.567Z,16.32
2023-05-04T05:50:25.041Z,15.79
2023-05-04T05:52:58.366Z,16.15
2023-05-04T05:55:30.891Z,16.51
2023-05-04T05:57:59.864Z,16.50
2023-05-04T06:00:29.337Z,16.60
2023-05-04T06:02:58.591Z,16.28
2023-05-04T06:05:27.810Z,16.11
2023-05-04T06:07:58.266Z,16.35
2023-05-04T06:10:27.572Z,16.58
2023-05-04T06:12:56.810Z,16.48
2023-05-04T06:15:26.031Z,16.81
2023-05-04T06:17:55.449Z,16.84
2023-05-04T06:20:26.232Z,17.22
2023-05-04T06:22:58.630Z,17.04
2023-05-04T06:25:28.243Z,17.09
2023-05-04T06:27:58.937Z,17.60
2023-05-04T06:30:28.082Z,17.89
2023-05-04T06:32:57.372Z,17.03
2023-05-04T06:35:26.437Z,17.75
2023-05-04T06:37:55.480Z,17.84
2023-05-04T06:40:27.963Z,18.23
2023-05-04T06:42:58.853Z,17.68
2023-05-04T06:45:28.265Z,18.28
2023-05-04T06:47:57.968Z,17.96
2023-05-04T06:50:27.920Z,17.92
2023-05-04T06:53:05.676Z,18.80
2023-05-04T06:55:37.187Z,18.98
2023-05-04T06:58:06.321Z,18.49
2023-05-04T07:00:36.330Z,18.44
2023-05-04T07:03:05.604Z,18.91
2023-05-04T07:05:36.991Z,18.38
2023-05-04T07:08:06.440Z,18.54
2023-05-04T07:10:36.854Z,18.38
2023-05-04T07:13:06.122Z,18.23
2023-05-04T07:15:35.949Z,18.69
2023-05-04T07:18:05.733Z,18.66
2023-05-04T07:20:34.805Z,18.57
2023-05-04T07:23:05.154Z,18.93
2023-05-04T07:25:36.414Z,19.03
2023-05-04T07:28:06.236Z,19.38
2023-05-04T07:30:35.533Z,19.06
2023-05-04T07:33:05.041Z,18.84
2023-05-04T07:35:34.156Z,18.26
2023-05-04T07:38:04.078Z,18.39
2023-05-04T07:40:33.269Z,19.26
2023-05-04T07:43:07.604Z,19.62
2023-05-04T07:45:37.172Z,19.68
2023-05-04T07:48:11.328Z,19.86
2023-05-04T07:50:42.108Z,19.87
2023-05-04T07:53:11.526Z,20.00
2023-05-04T07:55:40.853Z,20.18
2023-05-04T07:58:16.834Z,20.60
2023-05-04T08:00:46.011Z,20.16
2023-05-04T08:03:15.145Z,19.93
2023-05-04T08:05:44.251Z,20.80
2023-05-04T08:08:13.381Z,21.42
2023-05-04T08:10:42.437Z,21.54
2023-05-04T08:13:13.283Z,21.52
2023-05-04T08:15:42.931Z,21.58
2023-05-04T08:18:12.178Z,21.29
2023-05-04T08:20:42.115Z,21.52
2023-05-04T08:23:11.447Z,21.23
2023-05-04T08:25:40.562Z,20.81
2023-05-04T08:28:09.876Z,20.76
2023-05-04T08:30:40.365Z,21.15
2023-05-04T08:33:09.907Z,20.02
2023-05-04T08:35:38.944Z,20.99
2023-05-04T08:38:08.996Z,20.98
2023-05-04T08:40:41.604Z,20.57
2023-05-04T08:43:11.102Z,20.01
2023-05-04T08:45:41.569Z,20.46
2023-05-04T08:48:11.407Z,20.59
2023-05-04T08:50:40.506Z,20.76
2023-05-04T08:53:15.106Z,19.79
2023-05-04T08:55:48.570Z,19.88
2023-05-04T08:58:20.179Z,20.44
2023-05-04T09:00:51.608Z,20.19
2023-05-04T09:03:21.537Z,20.58
2023-05-04T09:05:52.656Z,21.23
2023-05-04T09:08:22.379Z,21.93
2023-05-04T09:10:51.588Z,20.90
2023-05-04T09:13:20.994Z,20.45
2023-05-04T09:15:59.313Z,21.95
2023-05-04T09:18:38.036Z,21.78
2023-05-04T09:21:07.699Z,23.20
2023-05-04T09:23:47.869Z,22.30
2023-05-04T09:26:27.637Z,22.57
2023-05-04T09:28:56.755Z,22.62
2023-05-04T09:31:28.468Z,22.35
2023-05-04T09:33:59.087Z,22.20
2023-05-04T09:36:28.714Z,22.88
2023-05-04T09:38:57.689Z,22.89
2023-05-04T09:41:34.610Z,21.77
2023-05-04T09:44:04.715Z,21.77
2023-05-04T09:46:36.638Z,22.10
2023-05-04T09:49:06.084Z,23.74
2023-05-04T09:51:35.761Z,23.99
2023-05-04T09:54:06.456Z,24.32
2023-05-04T09:56:42.117Z,24.34
2023-05-04T09:59:11.811Z,24.04
2023-05-04T10:01:44.702Z,23.34
2023-05-04T10:04:13.778Z,23.34
2023-05-04T10:06:45.053Z,24.02
2023-05-04T10:09:15.835Z,23.60
2023-05-04T10:11:45.880Z,23.10
2023-05-04T10:14:15.555Z,24.39
2023-05-04T10:16:55.505Z,24.36
2023-05-04T10:19:45.252Z,26.32
2023-05-04T10:22:25.022Z,24.29
2023-05-04T10:25:27.794Z,24.17
2023-05-04T10:28:08.799Z,23.54
2023-05-04T10:30:40.134Z,23.69
2023-05-04T10:33:11.172Z,24.15
2023-05-04T10:35:52.146Z,24.62
2023-05-04T10:38:21.519Z,25.43
2023-05-04T10:40:53.949Z,23.83
2023-05-04T10:43:24.774Z,24.91
2023-05-04T10:45:54.124Z,24.11
2023-05-04T10:48:35.313Z,23.35
2023-05-04T10:51:04.814Z,24.68
2023-05-04T10:53:34.658Z,24.99
2023-05-04T10:56:06.891Z,24.38
2023-05-04T10:58:36.258Z,24.56
2023-05-04T11:01:13.161Z,24.68
2023-05-04T11:03:44.044Z,23.65
2023-05-04T11:06:23.461Z,22.92
2023-05-04T11:09:01.625Z,21.97
2023-05-04T11:11:31.143Z,20.93
2023-05-04T11:14:00.454Z,21.48
2023-05-04T11:16:29.560Z,22.14
2023-05-04T11:19:12.558Z,21.42
2023-05-04T11:21:41.997Z,21.78
2023-05-04T11:24:11.612Z,21.11
2023-05-04T11:26:48.290Z,21.87
2023-05-04T11:29:19.461Z,20.70
2023-05-04T11:31:58.272Z,21.04
2023-05-04T11:34:31.416Z,21.32
2023-05-04T11:37:00.726Z,21.93
2023-05-04T11:39:34.337Z,22.36
2023-05-04T11:42:10.114Z,23.46
2023-05-04T11:44:41.006Z,24.28
2023-05-04T11:47:10.590Z,23.21
2023-05-04T11:49:41.921Z,22.73
2023-05-04T11:52:12.296Z,22.47
2023-05-04T11:54:57.022Z,23.42
2023-05-04T11:57:26.343Z,23.17
2023-05-04T11:59:56.608Z,24.38
2023-05-04T12:02:27.253Z,25.82
2023-05-04T12:05:01.533Z,26.79
2023-05-04T12:07:30.828Z,28.00
2023-05-04T12:10:00.292Z,25.37
2023-05-04T12:12:37.297Z,22.05
2023-05-04T12:15:07.747Z,21.94
2023-05-04T12:17:43.682Z,21.70
2023-05-04T12:20:25.020Z,22.68
2023-05-04T12:22:54.439Z,23.16
2023-05-04T12:25:24.212Z,22.51
2023-05-04T12:27:53.685Z,22.31
2023-05-04T12:30:23.154Z,23.30
2023-05-04T12:32:55.623Z,21.86
2023-05-04T12:35:27.183Z,23.47
2023-05-04T12:37:56.733Z,23.71
2023-05-04T12:40:28.955Z,23.79
2023-05-04T12:42:58.632Z,22.91
2023-05-04T12:45:27.786Z,21.24
2023-05-04T12:47:57.384Z,21.90
2023-05-04T12:50:52.625Z,22.33
2023-05-04T12:53:58.258Z,20.40
2023-05-04T12:56:30.198Z,19.40
2023-05-04T12:59:02.779Z,20.41
2023-05-04T13:01:35.199Z,19.57
2023-05-04T13:04:04.626Z,20.72
2023-05-04T13:06:35.452Z,20.39
2023-05-04T13:09:06.132Z,20.37
2023-05-04T13:11:35.753Z,20.32
2023-05-04T13:14:12.713Z,20.04
2023-05-04T13:16:49.926Z,20.78
2023-05-04T13:19:29.126Z,21.22
2023-05-04T13:22:04.258Z,20.44
2023-05-04T13:24:35.720Z,20.77
2023-05-04T13:27:05.443Z,21.03
2023-05-04T13:29:34.734Z,19.58
2023-05-04T13:32:06.679Z,19.05
2023-05-04T13:34:37.952Z,19.55
2023-05-04T13:37:08.899Z,19.36
2023-05-04T13:39:42.325Z,19.51
2023-05-04T13:42:13.305Z,18.44
2023-05-04T13:44:44.875Z,18.65
2023-05-04T13:47:14.456Z,19.44
2023-05-04T13:49:44.029Z,19.11
2023-05-04T13:52:15.209Z,19.05
2023-05-04T13:54:44.585Z,19.04
2023-05-04T13:57:19.286Z,19.15
2023-05-04T14:00:02.867Z,19.66
2023-05-04T14:02:40.211Z,19.40
2023-05-04T14:05:10.399Z,18.97
2023-05-04T14:07:43.915Z,18.84
2023-05-04T14:10:16.323Z,18.92
2023-05-04T14:12:46.063Z,18.33
2023-05-04T14:15:22.802Z,18.23
2023-05-04T14:17:52.842Z,17.89
2023-05-04T14:20:23.658Z,17.62
2023-05-04T14:22:54.363Z,18.50
2023-05-04T14:25:27.160Z,19.13
2023-05-04T14:27:58.734Z,18.72
2023-05-04T14:30:28.010Z,18.65
2023-05-04T14:32:58.453Z,18.26
2023-05-04T14:35:27.942Z,17.93
2023-05-04T14:37:58.363Z,17.61
2023-05-04T14:40:29.037Z,18.23
2023-05-04T14:43:01.111Z,18.52
2023-05-04T14:45:30.728Z,17.77
2023-05-04T14:48:02.555Z,17.91
2023-05-04T14:50:32.141Z,17.42
2023-05-04T14:53:02.903Z,17.35
2023-05-04T14:55:33.610Z,17.08
2023-05-04T14:58:05.750Z,17.12
2023-05-04T15:00:35.675Z,16.62
2023-05-04T15:03:05.864Z,16.35
2023-05-04T15:05:37.547Z,16.70
2023-05-04T15:08:08.943Z,16.21
2023-05-04T15:10:39.896Z,16.08
2023-05-04T15:13:10.529Z,16.43
2023-05-04T15:15:41.382Z,16.30
2023-05-04T15:18:13.689Z,16.53
2023-05-04T15:20:45.969Z,16.07
2023-05-04T15:26:03.755Z,15.91
2023-05-04T15:29:10.019Z,17.22
2023-05-04T15:31:43.024Z,16.86
2023-05-04T15:34:12.662Z,16.70
2023-05-04T15:36:45.574Z,16.51
2023-05-04T15:39:19.351Z,16.48
2023-05-04T15:41:49.457Z,15.49
2023-05-04T15:44:21.044Z,15.62
2023-05-04T15:46:53.815Z,15.39
2023-05-04T15:49:23.605Z,15.49
2023-05-04T15:51:53.674Z,15.60
2023-05-04T15:54:29.302Z,15.39
2023-05-04T15:56:58.677Z,15.27
2023-05-04T15:59:30.435Z,14.62
2023-05-04T16:02:00.035Z,14.38
2023-05-04T16:04:33.516Z,14.86
2023-05-04T16:07:04.174Z,14.25
2023-05-04T16:09:37.018Z,14.39
2023-05-04T16:12:09.128Z,14.75
2023-05-04T16:14:39.822Z,14.81
2023-05-04T16:17:13.876Z,14.55
2023-05-04T16:19:46.758Z,14.05
2023-05-04T16:22:18.853Z,14.30
2023-05-04T16:24:51.244Z,13.63
2023-05-04T16:27:24.197Z,14.60
2023-05-04T16:30:00.196Z,14.45
2023-05-04T16:32:37.020Z,14.69
2023-05-04T16:35:08.125Z,14.47
2023-05-04T16:38:01.477Z,13.78
2023-05-04T16:40:39.983Z,13.59
2023-05-04T16:43:20.580Z,14.22
2023-05-04T16:45:54.939Z,14.10
2023-05-04T16:48:28.216Z,13.98
2023-05-04T16:51:06.045Z,12.66
2023-05-04T16:53:57.319Z,13.59
2023-05-04T16:56:32.053Z,13.31
2023-05-04T16:59:21.952Z,13.82
2023-05-04T17:02:15.927Z,13.48
2023-05-04T17:04:49.751Z,13.59
2023-05-04T17:07:37.804Z,12.92
2023-05-04T17:10:26.044Z,13.60
2023-05-04T17:13:02.283Z,13.94
2023-05-04T17:15:37.232Z,12.77
2023-05-04T17:18:09.103Z,12.80
2023-05-04T17:20:43.391Z,13.15
2023-05-04T17:23:16.308Z,14.10
2023-05-04T17:25:47.369Z,13.96
2023-05-04T17:28:18.423Z,13.98
2023-05-04T17:30:48.399Z,13.81
2023-05-04T17:33:20.161Z,13.53
2023-05-04T17:35:50.778Z,13.72
2023-05-04T17:38:20.371Z,13.74
2023-05-04T17:40:50.321Z,13.59
2023-05-04T17:43:21.144Z,13.41
2023-05-04T17:45:55.513Z,13.82
2023-05-04T17:48:25.214Z,13.61
2023-05-04T17:50:54.690Z,13.80
2023-05-04T17:53:24.624Z,13.55
2023-05-04T17:55:54.191Z,13.72
2023-05-04T17:58:27.524Z,13.64
2023-05-04T18:01:13.206Z,13.04
2023-05-04T18:03:43.373Z,13.33
2023-05-04T18:06:13.352Z,13.10
2023-05-04T18:08:48.048Z,13.02
2023-05-04T18:11:21.748Z,13.59
2023-05-04T18:13:53.784Z,13.34
2023-05-04T18:16:24.160Z,14.10
2023-05-04T18:18:59.844Z,14.10
2023-05-04T18:21:37.783Z,13.49
2023-05-04T18:24:16.746Z,14.24
2023-05-04T18:26:57.155Z,13.26
2023-05-04T18:29:28.127Z,13.96
2023-05-04T18:32:09.171Z,13.91
2023-05-04T18:34:40.619Z,14.05
2023-05-04T18:37:12.213Z,13.97
2023-05-04T18:39:41.987Z,13.05
2023-05-04T18:42:15.508Z,13.31
2023-05-04T18:44:49.467Z,13.84
2023-05-04T18:47:23.194Z,13.43
2023-05-04T18:49:56.416Z,12.34
2023-05-04T18:52:26.436Z,13.61
2023-05-04T18:54:56.224Z,13.80
2023-05-04T18:57:25.701Z,13.78
2023-05-04T18:59:57.068Z,13.37
2023-05-04T19:02:30.314Z,13.50
2023-05-04T19:04:59.480Z,13.37
2023-05-04T19:07:39.366Z,13.30
2023-05-04T19:10:11.013Z,13.18
2023-05-04T19:12:40.380Z,13.23
2023-05-04T19:15:11.691Z,13.37
2023-05-04T19:17:41.029Z,13.40
2023-05-04T19:20:11.685Z,13.44
2023-05-04T19:22:41.173Z,13.49
2023-05-04T19:25:17.741Z,13.36
2023-05-04T19:27:53.884Z,13.35
2023-05-04T19:30:25.969Z,13.10
2023-05-04T19:32:59.042Z,13.25
2023-05-04T19:35:31.319Z,13.05
2023-05-04T19:38:01.614Z,13.17
2023-05-04T19:40:33.042Z,13.37
2023-05-04T19:43:04.166Z,13.06
2023-05-04T19:45:39.262Z,13.36
2023-05-04T19:48:21.788Z,13.06
2023-05-04T19:50:50.751Z,12.98
2023-05-04T19:53:20.316Z,12.80
2023-05-04T19:55:50.105Z,13.09
2023-05-04T19:58:20.723Z,12.95
2023-05-04T20:00:55.180Z,13.02
2023-05-04T20:03:27.327Z,13.15
2023-05-04T20:05:57.487Z,13.13
2023-05-04T20:08:28.803Z,13.12
2023-05-04T20:11:02.555Z,13.07
2023-05-04T20:13:32.602Z,13.15
2023-05-04T20:16:08.522Z,12.79
2023-05-04T20:18:38.374Z,12.67
2023-05-04T20:21:09.000Z,12.89
2023-05-04T20:23:40.525Z,12.98
2023-05-04T20:26:11.164Z,12.68
2023-05-04T20:28:40.685Z,12.85
2023-05-04T20:31:14.151Z,13.10
2023-05-04T20:33:43.495Z,13.00
2023-05-04T20:36:13.208Z,13.10
2023-05-04T20:38:43.014Z,13.06
2023-05-04T20:41:13.095Z,12.92
2023-05-04T20:43:47.542Z,12.60
2023-05-04T20:46:23.662Z,12.96
2023-05-04T20:48:53.636Z,12.77
2023-05-04T20:51:28.086Z,12.47
2023-05-04T20:53:57.312Z,12.65
2023-05-04T20:56:26.592Z,12.62
2023-05-04T20:58:56.099Z,12.54
2023-05-04T21:01:26.996Z,12.62
2023-05-04T21:04:01.068Z,12.48
2023-05-04T21:06:31.370Z,12.96
2023-05-04T21:09:13.735Z,12.55
2023-05-04T21:11:43.555Z,12.46
2023-05-04T21:14:16.734Z,12.69
2023-05-04T21:16:47.209Z,12.44
2023-05-04T21:19:18.825Z,12.67
2023-05-04T21:21:48.404Z,12.83
2023-05-04T21:24:17.625Z,12.88
2023-05-04T21:26:48.615Z,12.89
2023-05-04T21:29:17.942Z,12.87
2023-05-04T21:31:48.653Z,13.06
2023-05-04T21:34:20.469Z,13.21
2023-05-04T21:36:49.933Z,13.04
2023-05-04T21:39:19.480Z,12.87
2023-05-04T21:41:48.796Z,12.91
2023-05-04T21:44:20.440Z,13.01
2023-05-04T21:46:52.717Z,12.97
2023-05-04T21:49:22.543Z,12.95
2023-05-04T21:51:51.924Z,12.60
2023-05-04T21:54:23.999Z,12.62
2023-05-04T21:56:54.411Z,12.50
2023-05-04T21:59:23.986Z,12.23
2023-05-04T22:01:54.954Z,12.34
2023-05-04T22:04:24.671Z,12.06
2023-05-04T22:06:54.118Z,12.38
2023-05-04T22:09:23.385Z,12.08
2023-05-04T22:11:53.746Z,12.42
2023-05-04T22:14:37.014Z,12.36
2023-05-04T22:17:07.944Z,12.79
2023-05-04T22:19:38.276Z,12.71
2023-05-04T22:22:07.693Z,12.93
2023-05-04T22:24:37.476Z,12.94
2023-05-04T22:27:06.512Z,12.83
2023-05-04T22:29:35.935Z,12.94
2023-05-04T22:32:05.075Z,12.87
2023-05-04T22:34:35.738Z,12.94
2023-05-04T22:37:05.113Z,13.11
2023-05-04T22:39:34.125Z,12.79
2023-05-04T22:42:03.433Z,12.72
2023-05-04T22:44:32.500Z,12.53
2023-05-04T22:47:04.382Z,12.53
2023-05-04T22:49:33.672Z,12.69
2023-05-04T22:52:04.079Z,12.67
2023-05-04T22:54:33.116Z,12.52
2023-05-04T22:57:02.308Z,12.12
2023-05-04T22:59:31.946Z,12.38
2023-05-04T23:02:01.113Z,12.49
2023-05-04T23:04:32.807Z,12.68
2023-05-04T23:07:03.105Z,12.64
2023-05-04T23:09:33.223Z,12.50
2023-05-04T23:12:04.832Z,12.53
2023-05-04T23:14:36.276Z,12.64
2023-05-04T23:17:05.495Z,12.71
2023-05-04T23:19:34.881Z,12.52
2023-05-04T23:22:05.837Z,12.27
2023-05-04T23:24:35.206Z,12.40
2023-05-04T23:27:04.355Z,12.53
2023-05-04T23:29:33.632Z,12.67
2023-05-04T23:32:02.731Z,12.72
2023-05-04T23:34:32.101Z,13.03
2023-05-04T23:37:01.773Z,12.97
2023-05-04T23:39:32.008Z,12.75
2023-05-04T23:42:01.124Z,12.72
2023-05-04T23:44:30.253Z,12.53
2023-05-04T23:46:59.352Z,12.59
2023-05-04T23:49:28.436Z,12.50
2023-05-04T23:51:57.390Z,12.52
2023-05-04T23:54:26.416Z,12.20
2023-05-04T23:56:58.799Z,12.32
2023-05-04T23:59:27.822Z,12.12
